M/V Mary Elizabeth — WCX8058 — position and weather

sailwx.info

Track history (hours):
 
Tides and Currents Weather Stations Pressure Air Temp Water Temp Dewpoint Dewpoint Depression Visibility Wind Speed Wind Dir Waves Ship Positions

M/V Mary Elizabeth

Owner: Southern Towing Company, LLC, MEMPHIS, TN. More information available from US FCC via Universal Licensing System and Coast Guard Vessel Documentation Center.

Last reported at 2017-Sep-11 14:48 UTC. Time now 2017-Sep-20 18:37 UTC.
Position N 32°44' W 091°04'.
Warning: this ship's position is 9 days out of date.

Length 43 m; draft 3 m.

Type: Towing. MMSI: 366917120.

Date/timePositionNaut miles runAvg speedWind from/ knotsBaromVisibWave heightAir tempDewpointWater temp
2017-Sep-11 14:48N 32°44' W 091°04'0 0.0
2017-Sep-11 14:25N 32°44' W 091°04'0 0.2
2017-Sep-11 14:00N 32°44' W 091°04'4 1.8
2017-Sep-11 11:51N 32°40' W 091°06'1 4.2
2017-Sep-11 11:30N 32°40' W 091°08'1 1.9
2017-Sep-11 11:00N 32°40' W 091°08'2 3.6
2017-Sep-11 10:30N 32°38' W 091°09'2 4.2
2017-Sep-11 10:00N 32°36' W 091°08'2 5.0
2017-Sep-11 09:30N 32°34' W 091°06'3 4.5
2017-Sep-11 08:57N 32°32' W 091°06'2 5.4
2017-Sep-11 08:30N 32°29' W 091°07'3 5.0
2017-Sep-11 08:00N 32°27' W 091°05'3 5.0
2017-Sep-11 07:30N 32°26' W 091°03'3 5.0
2017-Sep-11 07:00N 32°25' W 091°00'2 4.0
2017-Sep-11 06:30N 32°23' W 090°60'2 3.7
2017-Sep-11 06:00N 32°21' W 090°60'2 5.0
2017-Sep-11 05:30N 32°21' W 090°57'3 5.2
2017-Sep-11 05:00N 32°20' W 090°54'1 1.0
2017-Sep-11 04:30N 32°20' W 090°54'0 0.1
2017-Sep-11 04:00N 32°20' W 090°54'0 0.0
2017-Sep-11 03:30N 32°20' W 090°54'0 0.1
2017-Sep-11 03:00N 32°20' W 090°54'0 0.0
2017-Sep-11 02:30N 32°20' W 090°54'0 0.0
2017-Sep-11 02:00N 32°20' W 090°54'0 0.0
2017-Sep-11 01:30N 32°20' W 090°54'0 0.0
2017-Sep-11 01:00N 32°20' W 090°54'0 0.0
2017-Sep-11 00:30N 32°20' W 090°54'0 0.0
2017-Sep-11 00:00N 32°20' W 090°54'0 0.0
2017-Sep-10 23:30N 32°20' W 090°54'0 0.0
2017-Sep-10 23:00N 32°20' W 090°54'0 0.0
2017-Sep-10 22:30N 32°20' W 090°54'0 0.0
2017-Sep-10 22:00N 32°20' W 090°54'0 0.0
2017-Sep-10 21:30N 32°20' W 090°54'0 0.0
2017-Sep-10 21:00N 32°20' W 090°54'0 0.0
2017-Sep-10 20:30N 32°20' W 090°54'0 0.0
2017-Sep-10 20:00N 32°20' W 090°54'0 0.0
2017-Sep-10 19:30N 32°20' W 090°54'0 0.0
2017-Sep-10 19:00N 32°20' W 090°54'0 0.0
2017-Sep-10 18:30N 32°20' W 090°54'0 0.0
2017-Sep-10 18:00N 32°20' W 090°54'0 0.0
2017-Sep-10 17:30N 32°20' W 090°54'0 0.0
2017-Sep-10 17:00N 32°20' W 090°54'0 0.0
2017-Sep-10 16:30N 32°20' W 090°54'0 0.0
2017-Sep-10 16:00N 32°20' W 090°54'0 0.0
2017-Sep-10 15:30N 32°20' W 090°54'0 0.0
2017-Sep-10 15:00N 32°20' W 090°54'0 0.0
2017-Sep-10 14:00N 32°20' W 090°54'0 0.0
2017-Sep-10 13:30N 32°20' W 090°54'0 0.0
2017-Sep-10 13:00N 32°20' W 090°54'0 0.0
2017-Sep-10 12:30N 32°20' W 090°54'0 0.0
2017-Sep-10 12:00N 32°20' W 090°54'0 0.0
2017-Sep-10 11:30N 32°20' W 090°54'0 0.0
2017-Sep-10 11:00N 32°20' W 090°54'0 0.1
2017-Sep-10 10:30N 32°20' W 090°54'0 0.0
2017-Sep-10 10:01N 32°20' W 090°54'0 0.1
2017-Sep-10 09:30N 32°20' W 090°54'0 0.0
2017-Sep-10 09:00N 32°20' W 090°54'0 0.0
2017-Sep-10 08:30N 32°20' W 090°54'0 0.0
2017-Sep-10 08:00N 32°20' W 090°54'0 0.0
2017-Sep-10 07:30N 32°20' W 090°54'0 0.0
2017-Sep-10 07:00N 32°20' W 090°54'0 0.0
2017-Sep-10 06:30N 32°20' W 090°54'0 0.0
2017-Sep-10 06:00N 32°20' W 090°54'0 0.0
2017-Sep-10 05:30N 32°20' W 090°54'0 0.0
2017-Sep-10 05:00N 32°20' W 090°54'0 0.0
2017-Sep-10 04:30N 32°20' W 090°54'0 0.0
2017-Sep-10 04:00N 32°20' W 090°54'0 0.0
2017-Sep-10 03:30N 32°20' W 090°54'0 0.0
2017-Sep-10 03:00N 32°20' W 090°54'0 0.0
2017-Sep-10 02:30N 32°20' W 090°54'0 0.0
2017-Sep-10 02:00N 32°20' W 090°54'0 0.0
2017-Sep-10 01:30N 32°20' W 090°54'0 0.0
2017-Sep-10 01:00N 32°20' W 090°54'0 0.0
2017-Sep-10 00:30N 32°20' W 090°54'0 0.0
2017-Sep-10 00:00N 32°20' W 090°54'0 0.0
2017-Sep-09 23:30N 32°20' W 090°54'0 0.0
2017-Sep-09 23:00N 32°20' W 090°54'0 0.0
2017-Sep-09 22:30N 32°20' W 090°54'0 0.0
2017-Sep-09 22:00N 32°20' W 090°54'0 0.0
2017-Sep-09 21:30N 32°20' W 090°54'0 0.0
2017-Sep-09 21:00N 32°20' W 090°54'0 0.0
2017-Sep-09 20:30N 32°20' W 090°54'0 0.0
2017-Sep-09 20:00N 32°20' W 090°54'0 0.0
2017-Sep-09 19:30N 32°20' W 090°54'0 0.0
2017-Sep-09 19:00N 32°20' W 090°54'0 0.0
2017-Sep-09 18:30N 32°20' W 090°54'0 0.1
2017-Sep-09 18:00N 32°20' W 090°54'0 0.1
2017-Sep-09 17:30N 32°20' W 090°54'0 0.0
2017-Sep-09 17:00N 32°20' W 090°54'0 0.0
2017-Sep-09 16:30N 32°20' W 090°54'0 0.0
2017-Sep-09 16:00N 32°20' W 090°54'0 0.0
2017-Sep-09 15:30N 32°20' W 090°54'0 0.0
2017-Sep-09 15:00N 32°20' W 090°54'0 0.0
2017-Sep-09 14:30N 32°20' W 090°54'0 0.0
2017-Sep-09 14:00N 32°20' W 090°54'0 0.0
2017-Sep-09 13:30N 32°20' W 090°54'0 0.0
2017-Sep-09 13:00N 32°20' W 090°54'0 0.3
2017-Sep-09 12:30N 32°21' W 090°54'2 3.5
2017-Sep-09 12:00N 32°22' W 090°53'2 4.0
2017-Sep-09 11:30N 32°20' W 090°54'0 0.1
2017-Sep-09 11:00N 32°20' W 090°54'0 0.0
2017-Sep-09 10:30N 32°20' W 090°54'0 0.0
2017-Sep-09 10:00N 32°20' W 090°54'0 0.0
2017-Sep-09 09:30N 32°20' W 090°54'0 0.0
2017-Sep-09 09:00N 32°20' W 090°54'0 0.7
2017-Sep-09 08:30N 32°20' W 090°54'1 3.0
2017-Sep-09 08:00N 32°21' W 090°56'3 6.8
2017-Sep-09 07:30N 32°21' W 090°60'4 7.4
2017-Sep-09 07:00N 32°25' W 090°60'4 7.6
2017-Sep-09 06:30N 32°26' W 091°04'4 7.3
2017-Sep-09 06:00N 32°29' W 091°07'4 7.9
2017-Sep-09 05:30N 32°33' W 091°06'4 7.6
2017-Sep-09 05:00N 32°36' W 091°09'4 7.6
2017-Sep-09 04:30N 32°40' W 091°08'5 7.3
2017-Sep-09 03:46N 32°43' W 091°03'5 7.6
2017-Sep-09 03:10N 32°44' W 091°08'1 8.5
2017-Sep-09 03:00N 32°45' W 091°09'  
Track history (hours):
 
Tides and Currents Weather Stations Pressure Air Temp Water Temp Dewpoint Dewpoint Depression Visibility Wind Speed Wind Dir Waves Ship Positions

M/V Mary Elizabeth

Owner: Southern Towing Company, LLC, MEMPHIS, TN. More information available from US FCC via Universal Licensing System and Coast Guard Vessel Documentation Center.

Last reported at 2017-Sep-11 14:48 UTC. Time now 2017-Sep-20 18:37 UTC.
Position N 32°44' W 091°04'.
Warning: this ship's position is 9 days out of date.

Length 43 m; draft 3 m.

Type: Towing. MMSI: 366917120.

Date/timePositionNaut miles runAvg speedWind from/ knotsBaromVisibWave heightAir tempDewpointWater temp
2017-Sep-11 14:48N 32°44' W 091°04'0 0.0
2017-Sep-11 14:25N 32°44' W 091°04'0 0.2
2017-Sep-11 14:00N 32°44' W 091°04'4 1.8
2017-Sep-11 11:51N 32°40' W 091°06'1 4.2
2017-Sep-11 11:30N 32°40' W 091°08'1 1.9
2017-Sep-11 11:00N 32°40' W 091°08'2 3.6
2017-Sep-11 10:30N 32°38' W 091°09'2 4.2
2017-Sep-11 10:00N 32°36' W 091°08'2 5.0
2017-Sep-11 09:30N 32°34' W 091°06'3 4.5
2017-Sep-11 08:57N 32°32' W 091°06'2 5.4
2017-Sep-11 08:30N 32°29' W 091°07'3 5.0
2017-Sep-11 08:00N 32°27' W 091°05'3 5.0
2017-Sep-11 07:30N 32°26' W 091°03'3 5.0
2017-Sep-11 07:00N 32°25' W 091°00'2 4.0
2017-Sep-11 06:30N 32°23' W 090°60'2 3.7
2017-Sep-11 06:00N 32°21' W 090°60'2 5.0
2017-Sep-11 05:30N 32°21' W 090°57'3 5.2
2017-Sep-11 05:00N 32°20' W 090°54'1 1.0
2017-Sep-11 04:30N 32°20' W 090°54'0 0.1
2017-Sep-11 04:00N 32°20' W 090°54'0 0.0
2017-Sep-11 03:30N 32°20' W 090°54'0 0.1
2017-Sep-11 03:00N 32°20' W 090°54'0 0.0
2017-Sep-11 02:30N 32°20' W 090°54'0 0.0
2017-Sep-11 02:00N 32°20' W 090°54'0 0.0
2017-Sep-11 01:30N 32°20' W 090°54'0 0.0
2017-Sep-11 01:00N 32°20' W 090°54'0 0.0
2017-Sep-11 00:30N 32°20' W 090°54'0 0.0
2017-Sep-11 00:00N 32°20' W 090°54'0 0.0
2017-Sep-10 23:30N 32°20' W 090°54'0 0.0
2017-Sep-10 23:00N 32°20' W 090°54'0 0.0
2017-Sep-10 22:30N 32°20' W 090°54'0 0.0
2017-Sep-10 22:00N 32°20' W 090°54'0 0.0
2017-Sep-10 21:30N 32°20' W 090°54'0 0.0
2017-Sep-10 21:00N 32°20' W 090°54'0 0.0
2017-Sep-10 20:30N 32°20' W 090°54'0 0.0
2017-Sep-10 20:00N 32°20' W 090°54'0 0.0
2017-Sep-10 19:30N 32°20' W 090°54'0 0.0
2017-Sep-10 19:00N 32°20' W 090°54'0 0.0
2017-Sep-10 18:30N 32°20' W 090°54'0 0.0
2017-Sep-10 18:00N 32°20' W 090°54'0 0.0
2017-Sep-10 17:30N 32°20' W 090°54'0 0.0
2017-Sep-10 17:00N 32°20' W 090°54'0 0.0
2017-Sep-10 16:30N 32°20' W 090°54'0 0.0
2017-Sep-10 16:00N 32°20' W 090°54'0 0.0
2017-Sep-10 15:30N 32°20' W 090°54'0 0.0
2017-Sep-10 15:00N 32°20' W 090°54'0 0.0
2017-Sep-10 14:00N 32°20' W 090°54'0 0.0
2017-Sep-10 13:30N 32°20' W 090°54'0 0.0
2017-Sep-10 13:00N 32°20' W 090°54'0 0.0
2017-Sep-10 12:30N 32°20' W 090°54'0 0.0
2017-Sep-10 12:00N 32°20' W 090°54'0 0.0
2017-Sep-10 11:30N 32°20' W 090°54'0 0.0
2017-Sep-10 11:00N 32°20' W 090°54'0 0.1
2017-Sep-10 10:30N 32°20' W 090°54'0 0.0
2017-Sep-10 10:01N 32°20' W 090°54'0 0.1
2017-Sep-10 09:30N 32°20' W 090°54'0 0.0
2017-Sep-10 09:00N 32°20' W 090°54'0 0.0
2017-Sep-10 08:30N 32°20' W 090°54'0 0.0
2017-Sep-10 08:00N 32°20' W 090°54'0 0.0
2017-Sep-10 07:30N 32°20' W 090°54'0 0.0
2017-Sep-10 07:00N 32°20' W 090°54'0 0.0
2017-Sep-10 06:30N 32°20' W 090°54'0 0.0
2017-Sep-10 06:00N 32°20' W 090°54'0 0.0
2017-Sep-10 05:30N 32°20' W 090°54'0 0.0
2017-Sep-10 05:00N 32°20' W 090°54'0 0.0
2017-Sep-10 04:30N 32°20' W 090°54'0 0.0
2017-Sep-10 04:00N 32°20' W 090°54'0 0.0
2017-Sep-10 03:30N 32°20' W 090°54'0 0.0
2017-Sep-10 03:00N 32°20' W 090°54'0 0.0
2017-Sep-10 02:30N 32°20' W 090°54'0 0.0
2017-Sep-10 02:00N 32°20' W 090°54'0 0.0
2017-Sep-10 01:30N 32°20' W 090°54'0 0.0
2017-Sep-10 01:00N 32°20' W 090°54'0 0.0
2017-Sep-10 00:30N 32°20' W 090°54'0 0.0
2017-Sep-10 00:00N 32°20' W 090°54'0 0.0
2017-Sep-09 23:30N 32°20' W 090°54'0 0.0
2017-Sep-09 23:00N 32°20' W 090°54'0 0.0
2017-Sep-09 22:30N 32°20' W 090°54'0 0.0
2017-Sep-09 22:00N 32°20' W 090°54'0 0.0
2017-Sep-09 21:30N 32°20' W 090°54'0 0.0
2017-Sep-09 21:00N 32°20' W 090°54'0 0.0
2017-Sep-09 20:30N 32°20' W 090°54'0 0.0
2017-Sep-09 20:00N 32°20' W 090°54'0 0.0
2017-Sep-09 19:30N 32°20' W 090°54'0 0.0
2017-Sep-09 19:00N 32°20' W 090°54'0 0.0
2017-Sep-09 18:30N 32°20' W 090°54'0 0.1
2017-Sep-09 18:00N 32°20' W 090°54'0 0.1
2017-Sep-09 17:30N 32°20' W 090°54'0 0.0
2017-Sep-09 17:00N 32°20' W 090°54'0 0.0
2017-Sep-09 16:30N 32°20' W 090°54'0 0.0
2017-Sep-09 16:00N 32°20' W 090°54'0 0.0
2017-Sep-09 15:30N 32°20' W 090°54'0 0.0
2017-Sep-09 15:00N 32°20' W 090°54'0 0.0
2017-Sep-09 14:30N 32°20' W 090°54'0 0.0
2017-Sep-09 14:00N 32°20' W 090°54'0 0.0
2017-Sep-09 13:30N 32°20' W 090°54'0 0.0
2017-Sep-09 13:00N 32°20' W 090°54'0 0.3
2017-Sep-09 12:30N 32°21' W 090°54'2 3.5
2017-Sep-09 12:00N 32°22' W 090°53'2 4.0
2017-Sep-09 11:30N 32°20' W 090°54'0 0.1
2017-Sep-09 11:00N 32°20' W 090°54'0 0.0
2017-Sep-09 10:30N 32°20' W 090°54'0 0.0
2017-Sep-09 10:00N 32°20' W 090°54'0 0.0
2017-Sep-09 09:30N 32°20' W 090°54'0 0.0
2017-Sep-09 09:00N 32°20' W 090°54'0 0.7
2017-Sep-09 08:30N 32°20' W 090°54'1 3.0
2017-Sep-09 08:00N 32°21' W 090°56'3 6.8
2017-Sep-09 07:30N 32°21' W 090°60'4 7.4
2017-Sep-09 07:00N 32°25' W 090°60'4 7.6
2017-Sep-09 06:30N 32°26' W 091°04'4 7.3
2017-Sep-09 06:00N 32°29' W 091°07'4 7.9
2017-Sep-09 05:30N 32°33' W 091°06'4 7.6
2017-Sep-09 05:00N 32°36' W 091°09'4 7.6
2017-Sep-09 04:30N 32°40' W 091°08'5 7.3
2017-Sep-09 03:46N 32°43' W 091°03'5 7.6
2017-Sep-09 03:10N 32°44' W 091°08'1 8.5
2017-Sep-09 03:00N 32°45' W 091°09'  

Dump ship's entire track history